createdAt,value
2023-05-05T00:00:43.912Z,24.6300
2023-05-05T00:01:46.207Z,24.6300
2023-05-05T00:02:48.445Z,24.6100
2023-05-05T00:03:50.722Z,24.6100
2023-05-05T00:04:52.949Z,24.6100
2023-05-05T00:05:55.071Z,24.6100
2023-05-05T00:06:57.289Z,24.6000
2023-05-05T00:07:59.556Z,24.5900
2023-05-05T00:09:01.808Z,24.6000
2023-05-05T00:10:02.009Z,24.5900
2023-05-05T00:11:38.549Z,24.5600
2023-05-05T00:12:40.647Z,24.5900
2023-05-05T00:13:42.828Z,24.6200
2023-05-05T00:14:44.964Z,24.6100
2023-05-05T00:15:47.162Z,24.5900
2023-05-05T00:16:49.455Z,24.6000
2023-05-05T00:17:51.588Z,24.6100
2023-05-05T00:18:53.786Z,24.6100
2023-05-05T00:19:55.953Z,24.6000
2023-05-05T00:20:58.205Z,24.5800
2023-05-05T00:22:00.381Z,24.5700
2023-05-05T00:23:02.614Z,24.5700
2023-05-05T00:24:04.821Z,24.5600
2023-05-05T00:25:04.890Z,24.5600
2023-05-05T00:26:08.124Z,24.5600
2023-05-05T00:27:09.289Z,24.5500
2023-05-05T00:28:11.482Z,24.5600
2023-05-05T00:29:13.669Z,24.5500
2023-05-05T00:30:15.825Z,24.5400
2023-05-05T00:32:51.366Z,24.4800
2023-05-05T00:33:52.467Z,24.4900
2023-05-05T00:34:54.582Z,24.5200
2023-05-05T00:35:56.789Z,24.5200
2023-05-05T00:36:58.992Z,24.5200
2023-05-05T00:38:01.127Z,24.5300
2023-05-05T00:39:03.314Z,24.5600
2023-05-05T00:40:05.605Z,24.5800
2023-05-05T00:41:07.700Z,24.5900
2023-05-05T00:42:10.011Z,24.5800
2023-05-05T00:43:12.101Z,24.5900
2023-05-05T00:44:14.332Z,24.6000
2023-05-05T00:45:16.557Z,24.6000
2023-05-05T00:46:18.720Z,24.6000
2023-05-05T00:47:20.979Z,24.6000
2023-05-05T00:48:21.000Z,24.5800
2023-05-05T00:49:23.248Z,24.5800
2023-05-05T00:50:25.432Z,24.6000
2023-05-05T00:51:27.566Z,24.6000
2023-05-05T00:52:29.788Z,24.5800
2023-05-05T00:53:31.912Z,24.5700
2023-05-05T00:54:34.135Z,24.5500
2023-05-05T00:55:36.343Z,24.5600
2023-05-05T00:56:38.552Z,24.5800
2023-05-05T00:57:40.730Z,24.5800
2023-05-05T00:58:42.926Z,24.5700
2023-05-05T00:59:45.141Z,24.5700
2023-05-05T01:00:47.393Z,24.5600
2023-05-05T01:01:49.612Z,24.5500
2023-05-05T01:02:51.956Z,24.5500
2023-05-05T01:03:54.134Z,24.5500
2023-05-05T01:04:54.114Z,24.5500
2023-05-05T01:05:56.295Z,24.5500
2023-05-05T01:06:58.528Z,24.5400
2023-05-05T01:08:00.778Z,24.5400
2023-05-05T01:09:02.983Z,24.5300
2023-05-05T01:10:18.186Z,24.5400
2023-05-05T01:11:07.428Z,24.5400
2023-05-05T01:12:09.575Z,24.5300
2023-05-05T01:13:12.033Z,24.5300
2023-05-05T01:14:14.031Z,24.5200
2023-05-05T01:15:16.198Z,24.5100
2023-05-05T01:16:18.416Z,24.5200
2023-05-05T01:17:20.531Z,24.5200
2023-05-05T01:18:22.738Z,24.5200
2023-05-05T01:19:24.942Z,24.5200
2023-05-05T01:20:27.123Z,24.5200
2023-05-05T01:21:29.324Z,24.5100
2023-05-05T01:22:31.500Z,24.5100
2023-05-05T01:23:31.593Z,24.5100
2023-05-05T01:24:33.833Z,24.5000
2023-05-05T01:25:36.093Z,24.5200
2023-05-05T01:26:38.331Z,24.5300
2023-05-05T01:27:40.582Z,24.5200
2023-05-05T01:28:42.819Z,24.5200
2023-05-05T01:29:44.974Z,24.5100
2023-05-05T01:30:47.232Z,24.5000
2023-05-05T01:31:49.464Z,24.5000
2023-05-05T01:32:51.666Z,24.5000
2023-05-05T01:33:54.002Z,24.5200
2023-05-05T01:34:56.053Z,24.5100
2023-05-05T01:35:56.167Z,24.5000
2023-05-05T01:36:58.332Z,24.4800
2023-05-05T01:38:00.503Z,24.4700
2023-05-05T01:39:02.719Z,24.4700
2023-05-05T01:40:05.184Z,24.4700
2023-05-05T01:41:07.144Z,24.4600
2023-05-05T01:42:09.383Z,24.4600
2023-05-05T01:43:11.619Z,24.4600
2023-05-05T01:45:46.248Z,24.3800
2023-05-05T01:46:48.357Z,24.4000
2023-05-05T01:47:50.598Z,24.4300
2023-05-05T01:48:52.759Z,24.4300
2023-05-05T01:49:55.044Z,24.4500
2023-05-05T01:50:57.106Z,24.4500
2023-05-05T01:51:59.286Z,24.4400
2023-05-05T01:53:01.466Z,24.4200
2023-05-05T01:54:03.594Z,24.4200
2023-05-05T01:55:05.843Z,24.4100
2023-05-05T01:56:06.780Z,24.3900
2023-05-05T01:57:07.958Z,24.4000
2023-05-05T01:58:10.098Z,24.4100
2023-05-05T01:59:12.277Z,24.4100
2023-05-05T02:00:14.563Z,24.4200
2023-05-05T02:01:16.631Z,24.4000
2023-05-05T02:02:16.637Z,24.4100
2023-05-05T02:03:18.953Z,24.4100
2023-05-05T02:04:21.059Z,24.3900
2023-05-05T02:05:23.340Z,24.3900
2023-05-05T02:06:25.504Z,24.3800
2023-05-05T02:07:27.704Z,24.3800
2023-05-05T02:08:29.885Z,24.3700
2023-05-05T02:09:32.064Z,24.3700
2023-05-05T02:10:34.341Z,24.3800
2023-05-05T02:11:36.419Z,24.3900
2023-05-05T02:12:38.580Z,24.3800
2023-05-05T02:13:40.755Z,24.3700
2023-05-05T02:14:42.887Z,24.3700
2023-05-05T02:15:45.133Z,24.3600
2023-05-05T02:16:47.225Z,24.3400
2023-05-05T02:17:49.453Z,24.3400
2023-05-05T02:18:51.618Z,24.3600
2023-05-05T02:19:53.781Z,24.3600
2023-05-05T02:20:55.993Z,24.3500
2023-05-05T02:21:58.160Z,24.3500
2023-05-05T02:23:00.336Z,24.3600
2023-05-05T02:24:00.372Z,24.3600
2023-05-05T02:25:02.550Z,24.3500
2023-05-05T02:26:04.752Z,24.3500
2023-05-05T02:27:06.908Z,24.3400
2023-05-05T02:28:09.096Z,24.3400
2023-05-05T02:29:11.291Z,24.3500
2023-05-05T02:30:13.479Z,24.3400
2023-05-05T02:31:15.727Z,24.3500
2023-05-05T02:32:17.896Z,24.3300
2023-05-05T02:33:20.118Z,24.3300
2023-05-05T02:34:22.388Z,24.3200
2023-05-05T02:35:24.584Z,24.3300
2023-05-05T02:36:26.811Z,24.3200
2023-05-05T02:37:28.976Z,24.3300
2023-05-05T02:38:31.108Z,24.3200
2023-05-05T02:39:33.322Z,24.3300
2023-05-05T02:40:35.474Z,24.3300
2023-05-05T02:41:37.688Z,24.3300
2023-05-05T02:42:39.860Z,24.3200
2023-05-05T02:43:42.016Z,24.2900
2023-05-05T02:44:44.186Z,24.3000
2023-05-05T02:45:46.387Z,24.2900
2023-05-05T02:46:46.618Z,24.2800
2023-05-05T02:47:48.652Z,24.2800
2023-05-05T02:48:50.726Z,24.2700
2023-05-05T02:49:52.908Z,24.2600
2023-05-05T02:50:55.116Z,24.2600
2023-05-05T02:51:57.363Z,24.2800
2023-05-05T02:52:59.479Z,24.2800
2023-05-05T02:54:01.695Z,24.2900
2023-05-05T02:55:03.917Z,24.2800
2023-05-05T02:56:06.153Z,24.2800
2023-05-05T02:57:08.446Z,24.2900
2023-05-05T02:58:10.502Z,24.2800
2023-05-05T02:59:14.535Z,24.2700
2023-05-05T03:00:12.719Z,24.2500
2023-05-05T03:01:14.877Z,24.2400
2023-05-05T03:02:17.032Z,24.2400
2023-05-05T03:03:19.258Z,24.2500
2023-05-05T03:04:21.406Z,24.2500
2023-05-05T03:05:23.604Z,24.2400
2023-05-05T03:06:25.783Z,24.2200
2023-05-05T03:07:27.957Z,24.2300
2023-05-05T03:08:30.138Z,24.2400
2023-05-05T03:09:32.349Z,24.2500
2023-05-05T03:10:34.567Z,24.2500
2023-05-05T03:11:36.787Z,24.2700
2023-05-05T03:12:39.165Z,24.2700
2023-05-05T03:13:41.258Z,24.2400
2023-05-05T03:14:43.506Z,24.2400
2023-05-05T03:15:43.591Z,24.2400
2023-05-05T03:16:46.091Z,24.2400
2023-05-05T03:17:48.064Z,24.2300
2023-05-05T03:18:50.278Z,24.2200
2023-05-05T03:19:52.536Z,24.2200
2023-05-05T03:20:54.784Z,24.2300
2023-05-05T03:21:56.995Z,24.2400
2023-05-05T03:22:59.246Z,24.2200
2023-05-05T03:24:01.435Z,24.2000
2023-05-05T03:25:03.702Z,24.1900
2023-05-05T03:26:05.958Z,24.1600
2023-05-05T03:27:06.084Z,24.1500
2023-05-05T03:28:08.341Z,24.1500
2023-05-05T03:29:10.578Z,24.1600
2023-05-05T03:30:12.768Z,24.1700
2023-05-05T03:31:14.996Z,24.1800
2023-05-05T03:32:17.169Z,24.2000
2023-05-05T03:33:19.382Z,24.2200
2023-05-05T03:34:21.522Z,24.2200
2023-05-05T03:35:23.713Z,24.1900
2023-05-05T03:36:27.874Z,24.1700
2023-05-05T03:37:28.032Z,24.1800
2023-05-05T03:38:30.259Z,24.2000
2023-05-05T03:39:32.362Z,24.1900
2023-05-05T03:40:43.592Z,24.1900
2023-05-05T03:41:36.712Z,24.1600
2023-05-05T03:42:38.945Z,24.1300
2023-05-05T03:43:41.287Z,24.1100
2023-05-05T03:44:41.277Z,24.1100
2023-05-05T03:45:43.549Z,24.1200
2023-05-05T03:46:45.735Z,24.1000
2023-05-05T03:47:47.973Z,24.1000
2023-05-05T03:48:50.184Z,24.0700
2023-05-05T03:49:52.437Z,24.0700
2023-05-05T03:50:54.632Z,24.0900
2023-05-05T03:51:56.905Z,24.0800
2023-05-05T03:52:59.115Z,24.1000
2023-05-05T03:54:01.391Z,24.0800
2023-05-05T03:55:03.599Z,24.0700
2023-05-05T03:56:05.845Z,24.0600
2023-05-05T03:57:05.930Z,24.0800
2023-05-05T03:58:08.188Z,24.0600
2023-05-05T03:59:10.490Z,24.0200
2023-05-05T04:00:12.702Z,24.0000
2023-05-05T04:01:14.901Z,23.9900
2023-05-05T04:02:18.772Z,23.9900
2023-05-05T04:03:19.584Z,23.9700
2023-05-05T04:04:21.693Z,23.9700
2023-05-05T04:05:23.851Z,24.0100
2023-05-05T04:06:26.125Z,24.0000
2023-05-05T04:08:37.042Z,23.9900
2023-05-05T04:09:39.174Z,24.0000
2023-05-05T04:10:41.283Z,24.0100
2023-05-05T04:11:43.477Z,24.0000
2023-05-05T04:12:43.556Z,23.9800
2023-05-05T04:13:45.757Z,23.9700
2023-05-05T04:14:48.066Z,23.9700
2023-05-05T04:15:50.196Z,23.9700
2023-05-05T04:16:52.372Z,23.9800
2023-05-05T04:17:54.603Z,23.9800
2023-05-05T04:18:56.825Z,23.9800
2023-05-05T04:19:59.137Z,23.9800
2023-05-05T04:21:01.227Z,23.9900
2023-05-05T04:22:03.399Z,23.9900
2023-05-05T04:23:05.595Z,23.9900
2023-05-05T04:24:07.792Z,23.9900
2023-05-05T04:25:10.874Z,23.9800
2023-05-05T04:26:12.164Z,23.9800
2023-05-05T04:27:14.339Z,23.9900
2023-05-05T04:28:16.513Z,23.9900
2023-05-05T04:29:18.672Z,24.0000
2023-05-05T04:30:20.916Z,23.9900
2023-05-05T04:31:23.118Z,24.0000
2023-05-05T04:32:23.214Z,23.9900
2023-05-05T04:33:25.391Z,23.9800
2023-05-05T04:34:27.623Z,23.9900
2023-05-05T04:35:29.889Z,24.0000
2023-05-05T04:36:32.130Z,24.0000
2023-05-05T04:37:34.376Z,24.0000
2023-05-05T04:38:36.724Z,24.0000
2023-05-05T04:39:39.010Z,24.0000
2023-05-05T04:40:41.150Z,24.0000
2023-05-05T04:41:43.338Z,23.9900
2023-05-05T04:42:44.469Z,23.9900
2023-05-05T04:43:45.722Z,23.9800
2023-05-05T04:44:47.901Z,23.9900
2023-05-05T04:45:50.188Z,23.9800
2023-05-05T04:46:52.428Z,23.9900
2023-05-05T04:47:54.553Z,23.9800
2023-05-05T04:48:54.655Z,23.9800
2023-05-05T04:49:56.924Z,23.9800
2023-05-05T04:50:59.222Z,23.9800
2023-05-05T04:52:01.441Z,23.9800
2023-05-05T04:53:03.720Z,23.9900
2023-05-05T04:54:05.963Z,23.9800
2023-05-05T04:55:08.234Z,23.9800
2023-05-05T04:56:10.579Z,23.9700
2023-05-05T04:57:12.734Z,23.9600
2023-05-05T04:58:12.851Z,23.9700
2023-05-05T04:59:15.110Z,23.9600
2023-05-05T05:00:17.354Z,23.9500
2023-05-05T05:01:19.803Z,23.9600
2023-05-05T05:02:22.057Z,23.9700
2023-05-05T05:03:24.132Z,23.9600
2023-05-05T05:04:26.289Z,23.9500
2023-05-05T05:05:28.535Z,23.9600
2023-05-05T05:06:30.859Z,23.9400
2023-05-05T05:07:32.966Z,23.9300
2023-05-05T05:08:35.191Z,23.9200
2023-05-05T05:09:37.448Z,23.9200
2023-05-05T05:10:37.620Z,23.9100
2023-05-05T05:11:39.910Z,23.8800
2023-05-05T05:12:42.164Z,23.8700
2023-05-05T05:13:44.420Z,23.8700
2023-05-05T05:14:46.696Z,23.8800
2023-05-05T05:15:49.050Z,23.8900
2023-05-05T05:16:49.275Z,23.9200
2023-05-05T05:17:51.639Z,23.9200
2023-05-05T05:18:53.707Z,23.9400
2023-05-05T05:19:56.013Z,23.9600
2023-05-05T05:20:58.256Z,23.9600
2023-05-05T05:22:00.672Z,23.9900
2023-05-05T05:23:02.787Z,23.9900
2023-05-05T05:24:05.086Z,23.9900
2023-05-05T05:25:05.299Z,23.9900
2023-05-05T05:26:07.554Z,23.9800
2023-05-05T05:27:10.302Z,23.9800
2023-05-05T05:28:12.083Z,23.9700
2023-05-05T05:29:14.349Z,23.9800
2023-05-05T05:30:16.617Z,24.0000
2023-05-05T05:31:18.805Z,24.0100
2023-05-05T05:32:21.036Z,24.0100
2023-05-05T05:33:23.218Z,24.0100
2023-05-05T05:34:23.268Z,24.0100
2023-05-05T05:35:25.505Z,24.0200
2023-05-05T05:36:27.749Z,24.0200
2023-05-05T05:37:30.118Z,24.0200
2023-05-05T05:38:32.306Z,24.0000
2023-05-05T05:39:34.566Z,23.9900
2023-05-05T05:40:36.839Z,24.0000
2023-05-05T05:41:39.104Z,24.0100
2023-05-05T05:42:41.463Z,24.0100
2023-05-05T05:43:41.440Z,24.0200
2023-05-05T05:44:43.704Z,24.0200
2023-05-05T05:45:46.020Z,24.0000
2023-05-05T05:46:48.251Z,24.0100
2023-05-05T05:47:50.685Z,24.0100
2023-05-05T05:48:50.666Z,24.0100
2023-05-05T05:49:52.950Z,24.0200
2023-05-05T05:50:55.185Z,24.0200
2023-05-05T05:51:55.292Z,24.0300
2023-05-05T05:52:57.547Z,24.0400
2023-05-05T05:53:59.770Z,24.0300
2023-05-05T05:55:02.023Z,24.0300
2023-05-05T05:56:04.233Z,24.0200
2023-05-05T05:57:06.479Z,24.0300
2023-05-05T05:58:08.830Z,24.0400
2023-05-05T05:59:10.995Z,24.0300
2023-05-05T06:00:13.283Z,24.0300
2023-05-05T06:01:13.379Z,24.0400
2023-05-05T06:02:15.650Z,24.0400
2023-05-05T06:03:17.973Z,24.0400
2023-05-05T06:04:20.154Z,24.0300
2023-05-05T06:05:22.398Z,24.0400
2023-05-05T06:06:24.652Z,24.0200
2023-05-05T06:07:26.874Z,24.0000
2023-05-05T06:08:29.108Z,24.0000
2023-05-05T06:09:31.289Z,24.0200
2023-05-05T06:10:31.497Z,24.0200
2023-05-05T06:11:33.540Z,24.0100
2023-05-05T06:12:35.788Z,24.0300
2023-05-05T06:13:38.001Z,24.0500
2023-05-05T06:14:40.082Z,24.0500
2023-05-05T06:15:42.333Z,24.0400
2023-05-05T06:16:44.511Z,24.0400
2023-05-05T06:17:46.757Z,24.0400
2023-05-05T06:18:49.076Z,24.0300
2023-05-05T06:19:52.415Z,24.0300
2023-05-05T06:20:53.402Z,24.0400
2023-05-05T06:21:55.619Z,24.0400
2023-05-05T06:22:57.876Z,24.0400
2023-05-05T06:24:00.265Z,24.0500
2023-05-05T06:25:36.753Z,24.0300
2023-05-05T06:26:38.896Z,24.0500
2023-05-05T06:27:41.098Z,24.0600
2023-05-05T06:28:43.275Z,24.0600
2023-05-05T06:29:45.568Z,24.0500
2023-05-05T06:30:47.664Z,24.0700
2023-05-05T06:31:49.904Z,24.0700
2023-05-05T06:32:52.066Z,24.0600
2023-05-05T06:33:52.123Z,24.0700
2023-05-05T06:34:54.487Z,24.0700
2023-05-05T06:35:56.566Z,24.0700
2023-05-05T06:36:58.788Z,24.0800
2023-05-05T06:38:01.052Z,24.0700
2023-05-05T06:39:03.216Z,24.0800
2023-05-05T06:40:05.656Z,24.0800
2023-05-05T06:41:07.708Z,24.0700
2023-05-05T06:42:09.914Z,24.0700
2023-05-05T06:43:12.261Z,24.0700
2023-05-05T06:44:14.419Z,24.0600
2023-05-05T06:45:16.837Z,24.0800
2023-05-05T06:46:16.824Z,24.0700
2023-05-05T06:47:19.033Z,24.0800
2023-05-05T06:48:21.237Z,24.0900
2023-05-05T06:49:23.504Z,24.0900
2023-05-05T06:50:25.819Z,24.1000
2023-05-05T06:51:27.983Z,24.0900
2023-05-05T06:52:30.231Z,24.1000
2023-05-05T06:53:32.496Z,24.1000
2023-05-05T06:54:34.724Z,24.1000
2023-05-05T06:55:36.987Z,24.0900
2023-05-05T06:56:37.044Z,24.1000
2023-05-05T06:57:39.324Z,24.0900
2023-05-05T06:58:41.589Z,24.0800
2023-05-05T06:59:43.664Z,24.1000
2023-05-05T07:00:46.019Z,24.1100
2023-05-05T07:01:48.069Z,24.1100
2023-05-05T07:02:50.272Z,24.1000
2023-05-05T07:03:52.591Z,24.1000
2023-05-05T07:04:54.642Z,24.1000
2023-05-05T07:05:56.956Z,24.1000
2023-05-05T07:06:59.047Z,24.1100
2023-05-05T07:08:01.216Z,24.1100
2023-05-05T07:09:03.435Z,24.1200
2023-05-05T07:10:05.733Z,24.1500
2023-05-05T07:11:07.789Z,24.1500
2023-05-05T07:12:09.980Z,24.1500
2023-05-05T07:13:12.244Z,24.1600
2023-05-05T07:14:14.771Z,24.1500
2023-05-05T07:15:26.608Z,24.1500
2023-05-05T07:16:16.659Z,24.1200
2023-05-05T07:17:18.832Z,24.1200
2023-05-05T07:18:21.029Z,24.1300
2023-05-05T07:19:23.232Z,24.1300
2023-05-05T07:20:25.439Z,24.1300
2023-05-05T07:21:27.697Z,24.1400
2023-05-05T07:22:29.636Z,24.1400
2023-05-05T07:23:31.766Z,24.1600
2023-05-05T07:24:33.990Z,24.1600
2023-05-05T07:25:36.231Z,24.1700
2023-05-05T07:26:38.607Z,24.1600
2023-05-05T07:27:40.656Z,24.1700
2023-05-05T07:28:40.715Z,24.1800
2023-05-05T07:29:43.012Z,24.1700
2023-05-05T07:30:45.120Z,24.1800
2023-05-05T07:33:04.790Z,24.1400
2023-05-05T07:34:06.771Z,24.1700
2023-05-05T07:35:09.016Z,24.1700
2023-05-05T07:36:11.200Z,24.1700
2023-05-05T07:37:13.428Z,24.1800
2023-05-05T07:38:15.633Z,24.1800
2023-05-05T07:39:17.845Z,24.1800
2023-05-05T07:40:20.053Z,24.1900
2023-05-05T07:41:20.134Z,24.1900
2023-05-05T07:42:22.363Z,24.1900
2023-05-05T07:43:24.702Z,24.1900
2023-05-05T07:44:26.795Z,24.2000
2023-05-05T07:45:29.059Z,24.2100
2023-05-05T07:46:31.258Z,24.2000
2023-05-05T07:47:33.314Z,24.2100
2023-05-05T07:48:35.513Z,24.2100
2023-05-05T07:49:37.699Z,24.2200
2023-05-05T07:50:39.940Z,24.2100
2023-05-05T07:51:42.153Z,24.2100
2023-05-05T07:52:49.946Z,24.2100
2023-05-05T07:53:46.661Z,24.1900
2023-05-05T07:54:46.672Z,24.2000
2023-05-05T07:55:48.811Z,24.2000
2023-05-05T07:56:51.081Z,24.2000
2023-05-05T07:57:53.304Z,24.1900
2023-05-05T07:58:57.305Z,24.1900
2023-05-05T07:59:57.755Z,24.2000
2023-05-05T08:01:00.051Z,24.2100
2023-05-05T08:02:02.114Z,24.2200
2023-05-05T08:03:04.484Z,24.2200
2023-05-05T08:04:06.630Z,24.2000
2023-05-05T08:05:09.342Z,24.2100
2023-05-05T08:06:11.189Z,24.2100
2023-05-05T08:07:13.290Z,24.2000
2023-05-05T08:08:15.531Z,24.1900
2023-05-05T08:09:17.875Z,24.2100
2023-05-05T08:10:20.021Z,24.2100
2023-05-05T08:11:22.329Z,24.2200
2023-05-05T08:12:24.528Z,24.2300
2023-05-05T08:13:26.790Z,24.2500
2023-05-05T08:14:29.079Z,24.2500
2023-05-05T08:15:31.303Z,24.2600
2023-05-05T08:16:31.591Z,24.2700
2023-05-05T08:17:33.767Z,24.2600
2023-05-05T08:18:35.910Z,24.2600
2023-05-05T08:19:38.195Z,24.2600
2023-05-05T08:20:40.422Z,24.2600
2023-05-05T08:21:42.626Z,24.2600
2023-05-05T08:22:44.880Z,24.2600
2023-05-05T08:23:47.143Z,24.2700
2023-05-05T08:24:49.432Z,24.2800
2023-05-05T08:25:51.651Z,24.2900
2023-05-05T08:26:51.712Z,24.3000
2023-05-05T08:27:53.977Z,24.2800
2023-05-05T08:28:56.225Z,24.2900
2023-05-05T08:29:58.580Z,24.3000
2023-05-05T08:31:00.732Z,24.3100
2023-05-05T08:32:03.046Z,24.2600
2023-05-05T08:33:05.212Z,24.2000
2023-05-05T08:34:07.418Z,24.1300
2023-05-05T08:35:09.833Z,24.0900
2023-05-05T08:36:11.799Z,24.0700
2023-05-05T08:37:14.014Z,24.0200
2023-05-05T08:38:16.217Z,23.9500
2023-05-05T08:39:16.268Z,23.9100
2023-05-05T08:40:18.479Z,23.8700
2023-05-05T08:41:20.633Z,23.8200
2023-05-05T08:42:35.569Z,23.7700
2023-05-05T08:43:22.890Z,23.7200
2023-05-05T08:44:25.031Z,23.7200
2023-05-05T08:45:27.279Z,23.7200
2023-05-05T08:46:29.394Z,23.6900
2023-05-05T08:47:31.724Z,23.7100
2023-05-05T08:48:33.752Z,23.7300
2023-05-05T08:49:35.939Z,23.7500
2023-05-05T08:50:38.182Z,23.7900
2023-05-05T08:51:40.347Z,23.7700
2023-05-05T08:52:42.560Z,23.7800
2023-05-05T08:53:44.743Z,23.7800
2023-05-05T08:54:46.875Z,23.7500
2023-05-05T08:55:49.171Z,23.7400
2023-05-05T08:56:51.207Z,23.7200
2023-05-05T08:57:53.357Z,23.7300
2023-05-05T08:58:55.536Z,23.7300
2023-05-05T08:59:57.701Z,23.7500
2023-05-05T09:01:00.029Z,23.7800
2023-05-05T09:02:02.083Z,23.7800
2023-05-05T09:03:02.310Z,23.7700
2023-05-05T09:04:04.228Z,23.7500
2023-05-05T09:05:06.733Z,23.7800
2023-05-05T09:06:08.574Z,23.8200
2023-05-05T09:07:10.724Z,23.8500
2023-05-05T09:08:12.911Z,23.8800
2023-05-05T09:09:15.052Z,23.8800
2023-05-05T09:10:17.254Z,23.9100
2023-05-05T09:11:19.451Z,23.8800
2023-05-05T09:12:21.549Z,23.8700
2023-05-05T09:13:23.737Z,23.8700
2023-05-05T09:14:25.918Z,23.8900
2023-05-05T09:15:28.099Z,23.8800
2023-05-05T09:16:30.382Z,23.9100
2023-05-05T09:17:32.579Z,23.9200
2023-05-05T09:18:34.841Z,23.9300
2023-05-05T09:19:36.948Z,23.9200
2023-05-05T09:20:39.125Z,23.9400
2023-05-05T09:21:41.327Z,23.9500
2023-05-05T09:22:43.515Z,23.9500
2023-05-05T09:23:45.713Z,23.9700
2023-05-05T09:24:47.934Z,23.9900
2023-05-05T09:25:48.003Z,23.9700
2023-05-05T09:26:50.317Z,23.9500
2023-05-05T09:27:52.420Z,23.9500
2023-05-05T09:28:54.617Z,23.9300
2023-05-05T09:29:56.837Z,23.9700
2023-05-05T09:30:59.111Z,24.0000
2023-05-05T09:32:01.269Z,24.0200
2023-05-05T09:33:03.546Z,24.0100
2023-05-05T09:34:05.801Z,24.0200
2023-05-05T09:35:08.124Z,24.0300
2023-05-05T09:36:10.195Z,24.0200
2023-05-05T09:37:12.454Z,23.9800
2023-05-05T09:38:14.616Z,23.9500
2023-05-05T09:39:14.636Z,23.9200
2023-05-05T09:40:16.796Z,23.8900
2023-05-05T09:41:19.010Z,23.8600
2023-05-05T09:42:21.247Z,23.8500
2023-05-05T09:43:23.480Z,23.8500
2023-05-05T09:44:25.620Z,23.8300
2023-05-05T09:45:27.911Z,23.8300
2023-05-05T09:46:30.115Z,23.8300
2023-05-05T09:47:33.541Z,23.8400
2023-05-05T09:48:34.531Z,23.8800
2023-05-05T09:49:36.689Z,23.9000
2023-05-05T09:50:36.498Z,23.9400
2023-05-05T09:51:38.624Z,23.9800
2023-05-05T09:52:38.774Z,23.9900
2023-05-05T09:53:40.899Z,24.0100
2023-05-05T09:54:43.121Z,24.0000
2023-05-05T09:55:45.269Z,24.0000
2023-05-05T09:56:47.472Z,24.0200
2023-05-05T09:57:49.780Z,24.0500
2023-05-05T09:58:51.869Z,24.0600
2023-05-05T09:59:54.136Z,24.1000
2023-05-05T10:00:56.376Z,24.1300
2023-05-05T10:03:11.636Z,24.1200
2023-05-05T10:04:13.667Z,24.1800
2023-05-05T10:05:14.958Z,24.1900
2023-05-05T10:06:15.879Z,24.1800
2023-05-05T10:07:18.070Z,24.1700
2023-05-05T10:08:18.146Z,24.1700
2023-05-05T10:09:20.296Z,24.1700
2023-05-05T10:10:22.495Z,24.2000
2023-05-05T10:11:24.664Z,24.2200
2023-05-05T10:12:26.830Z,24.2400
2023-05-05T10:13:29.064Z,24.2500
2023-05-05T10:14:31.153Z,24.2600
2023-05-05T10:15:33.367Z,24.2500
2023-05-05T10:16:35.629Z,24.2700
2023-05-05T10:17:37.785Z,24.3000
2023-05-05T10:18:40.150Z,24.3400
2023-05-05T10:19:42.177Z,24.3600
2023-05-05T10:20:44.482Z,24.3600
2023-05-05T10:21:46.602Z,24.3600
2023-05-05T10:22:48.797Z,24.3500
2023-05-05T10:23:51.044Z,24.3700
2023-05-05T10:24:53.257Z,24.3800
2023-05-05T10:25:55.425Z,24.3800
2023-05-05T10:26:57.611Z,24.3900
2023-05-05T10:27:59.789Z,24.3800
2023-05-05T10:28:59.931Z,24.3800
2023-05-05T10:30:02.022Z,24.3800
2023-05-05T10:31:10.046Z,24.3900
2023-05-05T10:32:27.115Z,24.4100
2023-05-05T10:34:10.948Z,24.4400
2023-05-05T10:35:12.973Z,24.4600
2023-05-05T10:36:15.244Z,24.4600
2023-05-05T10:37:17.332Z,24.4600
2023-05-05T10:38:19.546Z,24.4600
2023-05-05T10:39:21.841Z,24.4300
2023-05-05T10:40:23.896Z,24.4100
2023-05-05T10:41:26.084Z,24.4200
2023-05-05T10:42:28.247Z,24.4400
2023-05-05T10:43:30.452Z,24.4200
2023-05-05T10:44:32.691Z,24.4000
2023-05-05T10:45:35.051Z,24.4100
2023-05-05T10:46:35.257Z,24.4000
2023-05-05T10:47:37.217Z,24.4100
2023-05-05T10:48:39.451Z,24.4400
2023-05-05T10:49:41.764Z,24.4300
2023-05-05T10:50:43.836Z,24.4500
2023-05-05T10:51:46.162Z,24.4800
2023-05-05T10:52:48.275Z,24.4900
2023-05-05T10:53:50.466Z,24.5000
2023-05-05T10:54:52.655Z,24.4900
2023-05-05T10:55:54.862Z,24.4800
2023-05-05T10:56:57.084Z,24.4800
2023-05-05T10:57:59.308Z,24.4900
2023-05-05T10:59:01.499Z,24.4800
2023-05-05T11:00:03.834Z,24.4900
2023-05-05T11:01:05.905Z,24.4800
2023-05-05T11:02:05.915Z,24.4900
2023-05-05T11:03:08.200Z,24.4700
2023-05-05T11:04:10.353Z,24.4700
2023-05-05T11:05:12.554Z,24.4700
2023-05-05T11:06:14.573Z,24.4600
2023-05-05T11:07:16.817Z,24.4800
2023-05-05T11:08:18.909Z,24.4700
2023-05-05T11:09:21.098Z,24.4700
2023-05-05T11:10:23.320Z,24.5000
2023-05-05T11:11:25.486Z,24.5100
2023-05-05T11:12:27.659Z,24.5300
2023-05-05T11:13:29.841Z,24.5500
2023-05-05T11:14:32.041Z,24.5600
2023-05-05T11:15:34.356Z,24.5600
2023-05-05T11:16:36.518Z,24.5800
2023-05-05T11:17:38.718Z,24.5700
2023-05-05T11:18:40.896Z,24.5600
2023-05-05T11:19:43.050Z,24.5600
2023-05-05T11:20:45.321Z,24.5600
2023-05-05T11:21:47.372Z,24.5800
2023-05-05T11:22:49.783Z,24.5800
2023-05-05T11:23:51.750Z,24.5800
2023-05-05T11:24:53.948Z,24.5800
2023-05-05T11:25:54.003Z,24.5700
2023-05-05T11:26:56.177Z,24.5700
2023-05-05T11:27:58.350Z,24.5700
2023-05-05T11:30:28.528Z,24.5900
2023-05-05T11:31:30.842Z,24.6200
2023-05-05T11:32:32.862Z,24.6500
2023-05-05T11:33:35.018Z,24.6500
2023-05-05T11:34:37.195Z,24.6600
2023-05-05T11:35:39.331Z,24.6400
2023-05-05T11:36:41.533Z,24.6300
2023-05-05T11:37:43.684Z,24.6500
2023-05-05T11:38:46.000Z,24.6700
2023-05-05T11:39:48.124Z,24.6700
2023-05-05T11:40:50.312Z,24.6700
2023-05-05T11:41:52.520Z,24.6800
2023-05-05T11:42:33.253Z,24.6700
2023-05-05T11:43:35.428Z,24.6600
2023-05-05T11:44:37.583Z,24.6800
2023-05-05T11:45:39.741Z,24.6900
2023-05-05T11:46:41.953Z,24.7000
2023-05-05T11:47:44.183Z,24.6900
2023-05-05T11:48:46.334Z,24.6900
2023-05-05T11:49:48.541Z,24.7000
2023-05-05T11:50:50.757Z,24.7000
2023-05-05T11:51:52.974Z,24.7000
2023-05-05T11:52:55.230Z,24.7100
2023-05-05T11:53:59.136Z,24.7300
2023-05-05T11:54:59.622Z,24.7300
2023-05-05T11:56:01.787Z,24.7300
2023-05-05T11:57:03.938Z,24.7400
2023-05-05T11:58:06.082Z,24.7500
2023-05-05T11:59:08.248Z,24.7900
2023-05-05T12:00:10.822Z,24.8000
2023-05-05T12:01:12.568Z,24.7900
2023-05-05T12:02:14.787Z,24.7800
2023-05-05T12:03:17.015Z,24.7800
2023-05-05T12:04:19.140Z,24.8300
2023-05-05T12:05:19.200Z,24.8600
2023-05-05T12:06:21.448Z,24.8400
2023-05-05T12:07:23.673Z,24.8400
2023-05-05T12:08:25.968Z,24.8300
2023-05-05T12:09:28.159Z,24.8200
2023-05-05T12:10:30.225Z,24.8200
2023-05-05T12:11:32.437Z,24.8400
2023-05-05T12:12:34.619Z,24.8500
2023-05-05T12:13:36.813Z,24.8800
2023-05-05T12:14:38.925Z,24.8700
2023-05-05T12:15:41.091Z,24.8800
2023-05-05T12:16:43.331Z,24.8900
2023-05-05T12:17:45.512Z,24.8900
2023-05-05T12:18:47.761Z,24.8800
2023-05-05T12:19:49.841Z,24.9000
2023-05-05T12:20:52.023Z,24.9200
2023-05-05T12:21:54.203Z,24.9400
2023-05-05T12:22:56.378Z,24.9300
2023-05-05T12:23:58.624Z,24.9200
2023-05-05T12:25:01.057Z,24.9100
2023-05-05T12:26:00.909Z,24.9000
2023-05-05T12:27:03.139Z,24.8900
2023-05-05T12:28:05.341Z,24.8800
2023-05-05T12:29:07.669Z,24.8800
2023-05-05T12:30:09.881Z,24.8800
2023-05-05T12:31:12.030Z,24.9000
2023-05-05T12:32:14.376Z,24.9400
2023-05-05T12:33:16.511Z,24.9600
2023-05-05T12:34:18.786Z,24.9600
2023-05-05T12:35:21.005Z,24.9600
2023-05-05T12:36:23.213Z,24.9800
2023-05-05T12:37:25.453Z,24.9900
2023-05-05T12:38:25.547Z,25.0000
2023-05-05T12:39:27.765Z,25.0100
2023-05-05T12:40:30.165Z,24.9900